Time,TemperatureF,DewpointF,PressureIn,WindDirection,WindDirectionDegrees,WindSpeedMPH,WindSpeedGustMPH,Humidity,HourlyPrecipIn,Conditions,Clouds,dailyrainin,SolarRadiationWatts/m^2,SoftwareType,DateUTC
2013-02-09 00:00:00,38.5,36.1,30.10,SW,217,3.5,3.5,91,0.02,RA,,0.00,0.0,WeatherDisplay:10.37,2013-02-09 00:00:00,
2013-02-09 00:05:00,38.4,36.0,30.10,SW,217,4.0,4.0,91,0.02,RA,,0.00,0.0,WeatherDisplay:10.37,2013-02-09 00:05:00,
2013-02-09 00:10:00,38.4,36.0,30.10,SSW,212,3.5,3.5,91,0.02,CLR,,0.00,0.0,WeatherDisplay:10.37,2013-02-09 00:10:00,
2013-02-09 00:15:00,38.4,36.0,30.10,SSW,213,3.0,3.0,91,0.02,CLR,,0.00,0.0,WeatherDisplay:10.37,2013-02-09 00:15:00,
2013-02-09 00:20:00,38.4,36.0,30.10,SSW,213,3.5,3.5,91,0.02,CLR,,0.00,0.0,WeatherDisplay:10.37,2013-02-09 00:20:00,
2013-02-09 00:25:00,38.4,36.0,30.10,SSW,211,4.0,4.0,91,0.01,CLR,,0.00,0.0,WeatherDisplay:10.37,2013-02-09 00:25:00,
2013-02-09 00:30:00,38.4,36.0,30.10,SSW,211,2.3,2.3,91,0.02,RA,,0.01,0.0,WeatherDisplay:10.37,2013-02-09 00:30:00,
2013-02-09 00:35:00,38.4,36.0,30.10,SSW,211,2.3,2.3,91,0.02,RA,,0.01,0.0,WeatherDisplay:10.37,2013-02-09 00:35:00,
2013-02-09 00:40:00,38.4,36.0,30.10,SSW,212,3.5,3.5,91,0.02,CLR,,0.01,0.0,WeatherDisplay:10.37,2013-02-09 00:40:00,
2013-02-09 00:45:00,38.3,35.9,30.10,SSW,211,2.3,2.3,91,0.02,CLR,,0.01,0.0,WeatherDisplay:10.37,2013-02-09 00:45:00,
2013-02-09 00:50:00,38.3,35.9,30.10,SSW,211,4.0,4.0,91,0.02,RA,,0.02,0.0,WeatherDisplay:10.37,2013-02-09 00:50:00,
2013-02-09 00:55:00,38.3,35.9,30.10,SSW,205,3.5,3.5,91,0.02,RA,,0.02,0.0,WeatherDisplay:10.37,2013-02-09 00:55:00,
2013-02-09 01:00:00,38.3,35.9,30.09,SSW,204,3.5,3.5,91,0.02,CLR,,0.02,0.0,WeatherDisplay:10.37,2013-02-09 01:00:00,
2013-02-09 01:05:00,38.3,36.2,30.09,SSW,204,3.5,3.5,92,0.02,RA,,0.02,0.0,WeatherDisplay:10.37,2013-02-09 01:05:00,
2013-02-09 01:11:00,38.3,36.2,30.09,SSW,196,3.5,3.5,92,0.02,RA,,0.02,0.0,WeatherDisplay:10.37,2013-02-09 01:11:00,
2013-02-09 01:16:00,38.3,36.2,30.09,South,190,3.5,3.5,92,0.02,CLR,,0.02,0.0,WeatherDisplay:10.37,2013-02-09 01:16:00,
2013-02-09 01:21:00,38.2,36.1,30.09,South,188,3.5,3.5,92,0.02,CLR,,0.02,0.0,WeatherDisplay:10.37,2013-02-09 01:21:00,
2013-02-09 01:26:00,38.2,36.1,30.09,South,187,3.5,3.5,92,0.02,CLR,,0.02,0.0,WeatherDisplay:10.37,2013-02-09 01:26:00,
2013-02-09 01:31:00,38.1,36.0,30.09,South,191,3.5,3.5,92,0.02,CLR,,0.02,0.0,WeatherDisplay:10.37,2013-02-09 01:31:00,
2013-02-09 01:36:00,38.1,36.0,30.09,South,191,3.5,3.5,92,0.02,CLR,,0.02,0.0,WeatherDisplay:10.37,2013-02-09 01:36:00,
2013-02-09 01:41:00,38.1,35.7,30.09,South,184,4.6,4.6,91,0.02,CLR,,0.02,0.0,WeatherDisplay:10.37,2013-02-09 01:41:00,
2013-02-09 01:46:00,38.1,35.7,30.09,South,186,3.5,3.5,91,0.02,CLR,,0.02,0.0,WeatherDisplay:10.37,2013-02-09 01:46:00,
2013-02-09 01:51:00,38.0,35.6,30.08,South,185,3.5,3.5,91,0.01,CLR,,0.02,0.0,WeatherDisplay:10.37,2013-02-09 01:51:00,
2013-02-09 01:56:00,37.9,35.5,30.08,South,185,3.5,3.5,91,0.01,CLR,,0.02,0.0,WeatherDisplay:10.37,2013-02-09 01:56:00,
2013-02-09 02:01:00,37.9,35.5,30.08,South,170,6.9,6.9,91,0.01,CLR,,0.02,0.0,WeatherDisplay:10.37,2013-02-09 02:01:00,
2013-02-09 02:06:00,37.9,35.5,30.08,South,169,4.6,4.6,91,0.00,CLR,,0.02,0.0,WeatherDisplay:10.37,2013-02-09 02:06:00,
2013-02-09 02:11:00,37.8,35.4,30.08,South,176,3.5,3.5,91,0.00,CLR,,0.02,0.0,WeatherDisplay:10.37,2013-02-09 02:11:00,
2013-02-09 02:16:00,37.8,35.4,30.08,South,176,3.5,3.5,91,0.00,CLR,,0.02,0.0,WeatherDisplay:10.37,2013-02-09 02:16:00,
2013-02-09 02:21:00,37.7,35.6,30.08,South,175,4.6,4.6,92,0.00,CLR,,0.02,0.0,WeatherDisplay:10.37,2013-02-09 02:21:00,
2013-02-09 02:26:00,37.7,35.6,30.08,South,175,3.5,3.5,92,0.00,CLR,,0.02,0.0,WeatherDisplay:10.37,2013-02-09 02:26:00,
2013-02-09 02:31:00,37.7,35.6,30.07,South,175,4.6,4.6,92,0.00,CLR,,0.02,0.0,WeatherDisplay:10.37,2013-02-09 02:31:00,
2013-02-09 02:36:00,37.7,35.6,30.07,South,175,4.0,4.0,92,0.00,CLR,,0.02,0.0,WeatherDisplay:10.37,2013-02-09 02:36:00,
2013-02-09 02:41:00,37.7,35.6,30.07,SSE,161,5.8,5.8,92,0.00,CLR,,0.02,0.0,WeatherDisplay:10.37,2013-02-09 02:41:00,
2013-02-09 02:46:00,37.6,35.5,30.07,SSE,163,3.5,3.5,92,0.00,CLR,,0.02,0.0,WeatherDisplay:10.37,2013-02-09 02:46:00,
2013-02-09 02:51:00,37.6,35.5,30.07,SSE,164,3.5,3.5,92,0.00,CLR,,0.02,0.0,WeatherDisplay:10.37,2013-02-09 02:51:00,
2013-02-09 02:56:00,37.6,35.5,30.07,SSE,164,2.0,2.0,92,0.00,CLR,,0.02,0.0,WeatherDisplay:10.37,2013-02-09 02:56:00,
2013-02-09 03:01:00,37.6,35.5,30.07,SSE,164,0.0,0.0,92,0.00,CLR,,0.02,0.0,WeatherDisplay:10.37,2013-02-09 03:01:00,
2013-02-09 03:06:00,37.6,35.5,30.07,SSE,165,0.0,0.0,92,0.00,CLR,,0.02,0.0,WeatherDisplay:10.37,2013-02-09 03:06:00,
2013-02-09 03:11:00,37.6,35.5,30.07,SSE,164,0.0,0.0,92,0.00,CLR,,0.02,0.0,WeatherDisplay:10.37,2013-02-09 03:11:00,
2013-02-09 03:16:00,37.6,35.5,30.07,SSE,165,0.0,0.0,92,0.00,CLR,,0.02,0.0,WeatherDisplay:10.37,2013-02-09 03:16:00,
2013-02-09 03:21:00,37.6,35.5,30.07,SSE,165,0.0,0.0,92,0.00,CLR,,0.02,0.0,WeatherDisplay:10.37,2013-02-09 03:21:00,
2013-02-09 03:26:00,37.6,35.5,30.07,SSE,164,0.0,0.0,92,0.00,CLR,,0.02,0.0,WeatherDisplay:10.37,2013-02-09 03:26:00,
2013-02-09 03:31:00,37.6,35.5,30.07,SSE,165,0.0,0.0,92,0.00,CLR,,0.02,0.0,WeatherDisplay:10.37,2013-02-09 03:31:00,
2013-02-09 03:36:00,37.6,35.5,30.07,SSE,165,0.0,0.0,92,0.01,RA,,0.03,0.0,WeatherDisplay:10.37,2013-02-09 03:36:00,
2013-02-09 03:41:00,37.6,35.5,30.06,SSE,164,0.0,0.0,92,0.01,RA,,0.03,0.0,WeatherDisplay:10.37,2013-02-09 03:41:00,
2013-02-09 03:46:00,37.6,35.5,30.06,SSE,165,0.0,0.0,92,0.01,CLR,,0.03,0.0,WeatherDisplay:10.37,2013-02-09 03:46:00,
2013-02-09 03:51:00,37.5,35.4,30.06,SSE,164,0.0,0.0,92,0.01,CLR,,0.03,0.0,WeatherDisplay:10.37,2013-02-09 03:51:00,
2013-02-09 03:56:00,37.5,35.4,30.06,SSE,164,0.0,0.0,92,0.01,CLR,,0.03,0.0,WeatherDisplay:10.37,2013-02-09 03:56:00,
2013-02-09 04:01:00,37.5,35.4,30.06,SSE,165,0.0,0.0,92,0.01,CLR,,0.03,0.0,WeatherDisplay:10.37,2013-02-09 04:01:00,
2013-02-09 04:06:00,37.5,35.4,30.06,SSE,164,0.0,0.0,92,0.01,CLR,,0.03,0.0,WeatherDisplay:10.37,2013-02-09 04:06:00,
2013-02-09 04:11:00,37.5,35.4,30.06,SSE,165,0.0,0.0,92,0.01,CLR,,0.03,0.0,WeatherDisplay:10.37,2013-02-09 04:11:00,
2013-02-09 04:16:00,37.5,35.4,30.06,SSE,164,0.0,0.0,92,0.01,CLR,,0.03,0.0,WeatherDisplay:10.37,2013-02-09 04:16:00,
2013-02-09 04:21:00,37.5,35.4,30.06,SSE,164,3.5,3.5,92,0.01,CLR,,0.03,0.0,WeatherDisplay:10.37,2013-02-09 04:21:00,
2013-02-09 04:26:00,37.4,35.3,30.06,SSE,164,2.3,2.3,92,0.01,CLR,,0.03,0.0,WeatherDisplay:10.37,2013-02-09 04:26:00,
2013-02-09 04:31:00,37.4,35.3,30.06,SSE,164,3.5,3.5,92,0.01,CLR,,0.03,0.0,WeatherDisplay:10.37,2013-02-09 04:31:00,
2013-02-09 04:36:00,37.4,35.3,30.06,SSE,165,3.5,3.5,92,0.00,CLR,,0.03,0.0,WeatherDisplay:10.37,2013-02-09 04:36:00,
2013-02-09 04:41:00,37.3,35.2,30.06,SSE,163,3.5,3.5,92,0.00,CLR,,0.03,0.0,WeatherDisplay:10.37,2013-02-09 04:41:00,
2013-02-09 04:46:00,37.3,35.2,30.05,SSE,163,3.5,3.5,92,0.00,CLR,,0.03,0.0,WeatherDisplay:10.37,2013-02-09 04:46:00,
2013-02-09 04:51:00,37.2,35.1,30.05,SSE,163,3.5,3.5,92,0.00,CLR,,0.03,0.0,WeatherDisplay:10.37,2013-02-09 04:51:00,
2013-02-09 04:56:00,37.2,35.1,30.05,SSE,164,3.5,3.5,92,0.00,CLR,,0.03,0.0,WeatherDisplay:10.37,2013-02-09 04:56:00,
2013-02-09 05:00:00,37.2,35.1,30.05,SSE,163,3.5,3.5,92,0.00,CLR,,0.03,0.0,WeatherDisplay:10.37,2013-02-09 05:00:00,
2013-02-09 05:05:00,37.2,35.1,30.05,SSE,164,3.5,3.5,92,0.00,CLR,,0.03,0.0,WeatherDisplay:10.37,2013-02-09 05:05:00,
2013-02-09 05:10:00,37.2,35.1,30.05,SSE,163,1.1,0.0,92,0.00,CLR,,0.03,0.0,WeatherDisplay:10.37,2013-02-09 05:10:00,
2013-02-09 05:15:00,37.2,35.1,30.05,SSE,163,3.5,3.5,92,0.00,CLR,,0.03,0.0,WeatherDisplay:10.37,2013-02-09 05:15:00,
2013-02-09 05:20:00,37.2,35.1,30.05,SSE,163,4.6,4.6,92,0.00,CLR,,0.03,0.0,WeatherDisplay:10.37,2013-02-09 05:20:00,
2013-02-09 05:25:00,37.2,35.1,30.05,SSE,161,3.5,3.5,92,0.00,CLR,,0.03,0.0,WeatherDisplay:10.37,2013-02-09 05:25:00,
2013-02-09 05:30:00,37.1,35.0,30.05,SSE,159,3.5,3.5,92,0.00,CLR,,0.03,0.0,WeatherDisplay:10.37,2013-02-09 05:30:00,
2013-02-09 05:35:00,37.1,35.0,30.05,SSE,155,3.5,3.5,92,0.00,CLR,,0.03,0.0,WeatherDisplay:10.37,2013-02-09 05:35:00,
2013-02-09 05:40:00,37.2,35.1,30.05,SSE,155,3.5,3.5,92,0.00,CLR,,0.03,0.0,WeatherDisplay:10.37,2013-02-09 05:40:00,
2013-02-09 05:45:00,37.2,35.1,30.05,SSE,155,3.0,3.0,92,0.00,CLR,,0.03,0.0,WeatherDisplay:10.37,2013-02-09 05:45:00,
2013-02-09 05:51:00,37.1,35.0,30.04,SSE,155,3.5,3.5,92,0.00,CLR,,0.03,0.0,WeatherDisplay:10.37,2013-02-09 05:51:00,
2013-02-09 05:55:00,37.1,35.0,30.05,SSE,155,4.0,4.0,92,0.00,CLR,,0.03,0.0,WeatherDisplay:10.37,2013-02-09 05:55:00,
2013-02-09 06:01:00,37.1,35.0,30.05,SSE,155,2.3,2.3,92,0.00,CLR,,0.03,0.0,WeatherDisplay:10.37,2013-02-09 06:01:00,
2013-02-09 06:06:00,37.1,35.0,30.05,SSE,155,3.5,0.0,92,0.01,RA,,0.04,0.0,WeatherDisplay:10.37,2013-02-09 06:06:00,
2013-02-09 06:11:00,37.1,35.0,30.05,SSE,153,1.1,0.0,92,0.01,RA,,0.04,0.0,WeatherDisplay:10.37,2013-02-09 06:11:00,
2013-02-09 06:16:00,37.1,35.0,30.05,SSE,155,3.5,3.5,92,0.01,,,0.04,0.0,WeatherDisplay:10.37,2013-02-09 06:16:00,
2013-02-09 06:21:00,37.1,35.0,30.05,SSE,155,1.1,0.0,92,0.01,CLR,,0.04,0.0,WeatherDisplay:10.37,2013-02-09 06:21:00,
2013-02-09 06:26:00,37.1,35.0,30.05,SSE,155,0.0,0.0,92,0.01,CLR,,0.04,0.0,WeatherDisplay:10.37,2013-02-09 06:26:00,
2013-02-09 06:31:00,37.1,35.0,30.05,SSE,155,0.0,0.0,92,0.01,CLR,,0.04,0.0,WeatherDisplay:10.37,2013-02-09 06:31:00,
2013-02-09 06:36:00,37.1,35.0,30.05,SSE,154,0.0,0.0,92,0.01,CLR,,0.04,0.0,WeatherDisplay:10.37,2013-02-09 06:36:00,
2013-02-09 06:41:00,37.1,35.0,30.05,SSE,155,0.0,0.0,92,0.01,CLR,,0.04,0.0,WeatherDisplay:10.37,2013-02-09 06:41:00,
2013-02-09 06:46:00,37.1,35.0,30.05,SSE,153,0.0,0.0,92,0.01,CLR,,0.04,0.0,WeatherDisplay:10.37,2013-02-09 06:46:00,
2013-02-09 06:51:00,37.1,35.0,30.05,SSE,155,0.0,0.0,92,0.01,CLR,,0.04,0.0,WeatherDisplay:10.37,2013-02-09 06:51:00,
2013-02-09 06:56:00,37.1,35.0,30.05,SSE,154,1.1,1.1,92,0.01,CLR,,0.04,0.0,WeatherDisplay:10.37,2013-02-09 06:56:00,
2013-02-09 07:01:00,37.1,35.0,30.05,SSE,155,2.3,2.3,92,0.01,CLR,,0.04,0.0,WeatherDisplay:10.37,2013-02-09 07:01:00,
2013-02-09 07:06:00,37.0,34.9,30.05,SSE,155,1.1,0.0,92,0.00,CLR,,0.04,0.0,WeatherDisplay:10.37,2013-02-09 07:06:00,
2013-02-09 07:11:00,37.0,34.9,30.05,SSE,155,0.0,0.0,92,0.00,CLR,,0.04,0.0,WeatherDisplay:10.37,2013-02-09 07:11:00,
2013-02-09 07:16:00,37.0,34.9,30.05,SSE,155,1.1,1.1,92,0.00,CLR,,0.04,0.0,WeatherDisplay:10.37,2013-02-09 07:16:00,
2013-02-09 07:21:00,37.0,34.9,30.05,SSE,153,0.0,0.0,92,0.00,CLR,,0.04,0.0,WeatherDisplay:10.37,2013-02-09 07:21:00,
2013-02-09 07:26:00,37.1,35.0,30.04,SSE,155,2.3,2.3,92,0.00,OVC,,0.04,0.0,WeatherDisplay:10.37,2013-02-09 07:26:00,
2013-02-09 07:31:00,37.1,35.0,30.04,SSE,154,3.0,3.0,92,0.00,OVC,,0.04,0.0,WeatherDisplay:10.37,2013-02-09 07:31:00,
2013-02-09 07:36:00,37.1,35.0,30.04,SSE,154,0.0,0.0,92,0.00,OVC,,0.04,0.0,WeatherDisplay:10.37,2013-02-09 07:36:00,
2013-02-09 07:41:00,37.1,35.0,30.04,SSE,155,0.0,0.0,92,0.00,OVC,,0.04,0.0,WeatherDisplay:10.37,2013-02-09 07:41:00,
2013-02-09 07:46:00,37.1,35.0,30.04,SSE,154,0.0,0.0,92,0.00,OVC,,0.04,0.0,WeatherDisplay:10.37,2013-02-09 07:46:00,
2013-02-09 07:51:00,37.1,35.0,30.05,SSE,155,0.0,0.0,92,0.00,OVC,,0.04,0.0,WeatherDisplay:10.37,2013-02-09 07:51:00,
2013-02-09 07:56:00,37.1,35.0,30.05,SSE,154,0.0,0.0,92,0.00,OVC,,0.04,0.0,WeatherDisplay:10.37,2013-02-09 07:56:00,
2013-02-09 08:01:00,37.1,35.0,30.05,SSE,154,0.0,0.0,92,0.00,OVC,,0.04,0.0,WeatherDisplay:10.37,2013-02-09 08:01:00,
2013-02-09 08:06:00,37.1,35.0,30.05,SSE,155,0.0,0.0,92,0.00,OVC,,0.04,0.0,WeatherDisplay:10.37,2013-02-09 08:06:00,
2013-02-09 08:11:00,37.1,35.0,30.05,SSE,155,0.0,0.0,92,0.00,OVC,,0.04,0.0,WeatherDisplay:10.37,2013-02-09 08:11:00,
2013-02-09 08:16:00,37.1,35.3,30.05,SSE,155,3.5,3.5,93,0.00,BKN,,0.04,5.0,WeatherDisplay:10.37,2013-02-09 08:16:00,
2013-02-09 08:21:00,37.2,35.4,30.05,SSE,155,2.3,2.3,93,0.00,BKN,,0.04,5.0,WeatherDisplay:10.37,2013-02-09 08:21:00,
2013-02-09 08:26:00,37.2,35.4,30.05,SSE,155,0.0,0.0,93,0.00,BKN,,0.04,7.0,WeatherDisplay:10.37,2013-02-09 08:26:00,
2013-02-09 08:31:00,37.2,35.4,30.05,SSE,155,3.5,3.5,93,0.00,BKN,,0.04,7.0,WeatherDisplay:10.37,2013-02-09 08:31:00,
2013-02-09 08:36:00,37.3,35.5,30.05,SSE,155,3.5,3.5,93,0.00,BKN,,0.04,9.0,WeatherDisplay:10.37,2013-02-09 08:36:00,
2013-02-09 08:41:00,37.3,35.5,30.05,SSE,154,2.3,2.3,93,0.00,BKN,,0.04,9.0,WeatherDisplay:10.37,2013-02-09 08:41:00,
2013-02-09 08:46:00,37.3,35.5,30.05,SSE,154,0.0,0.0,93,0.00,BKN,,0.04,11.0,WeatherDisplay:10.37,2013-02-09 08:46:00,
2013-02-09 08:51:00,37.3,35.5,30.05,SSE,155,2.3,2.3,93,0.00,BKN,,0.04,12.0,WeatherDisplay:10.37,2013-02-09 08:51:00,
2013-02-09 08:56:00,37.4,35.6,30.05,SSE,155,2.3,2.3,93,0.00,BKN,,0.04,16.0,WeatherDisplay:10.37,2013-02-09 08:56:00,
2013-02-09 09:01:00,37.4,35.6,30.05,SSE,155,3.5,3.5,93,0.00,BKN,,0.04,16.0,WeatherDisplay:10.37,2013-02-09 09:01:00,
2013-02-09 09:06:00,37.4,35.6,30.04,SSE,155,2.3,2.3,93,0.00,BKN,,0.04,16.0,WeatherDisplay:10.37,2013-02-09 09:06:00,
2013-02-09 09:11:00,37.5,35.7,30.05,SSE,155,2.3,2.3,93,0.00,BKN,,0.04,16.0,WeatherDisplay:10.37,2013-02-09 09:11:00,
2013-02-09 09:16:00,37.5,35.7,30.05,SSE,155,3.5,3.5,93,0.00,BKN,,0.04,19.0,WeatherDisplay:10.37,2013-02-09 09:16:00,
2013-02-09 09:21:00,37.5,35.7,30.05,SSE,155,3.0,3.0,93,0.00,BKN,,0.04,21.0,WeatherDisplay:10.37,2013-02-09 09:21:00,
2013-02-09 09:26:00,37.5,35.7,30.05,SSE,155,3.0,3.0,93,0.00,BKN,,0.04,19.0,WeatherDisplay:10.37,2013-02-09 09:26:00,
2013-02-09 09:31:00,37.6,35.8,30.04,SSE,153,0.0,0.0,93,0.00,BKN,,0.04,19.0,WeatherDisplay:10.37,2013-02-09 09:31:00,
2013-02-09 09:36:00,37.6,35.8,30.05,SSE,155,2.3,2.3,93,0.00,BKN,,0.04,18.0,WeatherDisplay:10.37,2013-02-09 09:36:00,
2013-02-09 09:41:00,37.6,35.8,30.05,SSE,155,2.0,2.0,93,0.00,BKN,,0.04,19.0,WeatherDisplay:10.37,2013-02-09 09:41:00,
2013-02-09 09:46:00,37.7,35.9,30.05,SSE,154,2.0,2.0,93,0.00,BKN,,0.04,18.0,WeatherDisplay:10.37,2013-02-09 09:46:00,
2013-02-09 09:51:00,37.7,35.9,30.05,SSE,154,3.5,3.5,93,0.00,BKN,,0.04,21.0,WeatherDisplay:10.37,2013-02-09 09:51:00,
2013-02-09 09:56:00,37.7,35.9,30.05,SSE,154,3.5,3.5,93,0.00,BKN,,0.04,33.0,WeatherDisplay:10.37,2013-02-09 09:56:00,
2013-02-09 10:01:00,37.8,36.0,30.05,SSE,152,3.5,3.5,93,0.00,BKN,,0.04,37.0,WeatherDisplay:10.37,2013-02-09 10:01:00,
2013-02-09 10:06:00,37.8,36.0,30.05,SSE,153,2.3,2.3,93,0.00,BKN,,0.04,37.0,WeatherDisplay:10.37,2013-02-09 10:06:00,
2013-02-09 10:11:00,37.9,36.1,30.05,SSE,153,2.3,2.3,93,0.00,BKN,,0.04,35.0,WeatherDisplay:10.37,2013-02-09 10:11:00,
2013-02-09 10:16:00,38.0,36.2,30.05,SSE,152,2.3,2.3,93,0.00,BKN,,0.04,35.0,WeatherDisplay:10.37,2013-02-09 10:16:00,
2013-02-09 10:21:00,38.1,36.3,30.04,SE,146,3.5,3.5,93,0.00,BKN,,0.04,47.0,WeatherDisplay:10.37,2013-02-09 10:21:00,
2013-02-09 10:26:00,38.1,36.3,30.05,SE,146,1.0,1.0,93,0.00,BKN,,0.04,37.0,WeatherDisplay:10.37,2013-02-09 10:26:00,
2013-02-09 10:31:00,38.2,36.4,30.05,SE,146,3.5,3.5,93,0.00,BKN,,0.04,40.0,WeatherDisplay:10.37,2013-02-09 10:31:00,
2013-02-09 10:36:00,38.3,36.5,30.04,SE,146,4.0,4.0,93,0.00,BKN,,0.04,40.0,WeatherDisplay:10.37,2013-02-09 10:36:00,
2013-02-09 10:41:00,38.4,36.6,30.04,SE,146,3.5,3.5,93,0.00,BKN,,0.04,33.0,WeatherDisplay:10.37,2013-02-09 10:41:00,
2013-02-09 10:46:00,38.4,36.6,30.04,SE,145,1.1,0.0,93,0.00,BKN,,0.04,25.0,WeatherDisplay:10.37,2013-02-09 10:46:00,
2013-02-09 10:51:00,38.5,36.7,30.04,SE,146,0.0,0.0,93,0.00,BKN,,0.04,44.0,WeatherDisplay:10.37,2013-02-09 10:51:00,
2013-02-09 10:56:00,38.5,36.7,30.04,SE,145,2.3,2.3,93,0.00,BKN,,0.04,65.0,WeatherDisplay:10.37,2013-02-09 10:56:00,
2013-02-09 11:01:00,38.6,36.8,30.04,SE,146,3.5,3.5,93,0.00,BKN,,0.04,69.0,WeatherDisplay:10.37,2013-02-09 11:01:00,
2013-02-09 11:06:00,38.7,36.9,30.04,SE,146,3.5,3.5,93,0.00,BKN,,0.04,44.0,WeatherDisplay:10.37,2013-02-09 11:06:00,
2013-02-09 11:11:00,38.8,36.9,30.04,SE,138,5.0,5.0,93,0.00,BKN,,0.04,46.0,WeatherDisplay:10.37,2013-02-09 11:11:00,
2013-02-09 11:16:00,38.9,37.0,30.04,SE,129,3.5,3.5,93,0.00,BKN,,0.04,46.0,WeatherDisplay:10.37,2013-02-09 11:16:00,
2013-02-09 11:22:00,38.9,37.0,30.04,SE,128,4.6,4.6,93,0.00,BKN,,0.04,46.0,WeatherDisplay:10.37,2013-02-09 11:22:00,
2013-02-09 11:27:00,38.9,37.0,30.04,SE,128,3.5,3.5,93,0.00,BKN,,0.04,37.0,WeatherDisplay:10.37,2013-02-09 11:27:00,
2013-02-09 11:32:00,39.0,37.1,30.04,SE,126,1.1,1.1,93,0.00,BKN,,0.04,42.0,WeatherDisplay:10.37,2013-02-09 11:32:00,
2013-02-09 11:37:00,39.0,37.1,30.04,ESE,116,4.6,4.6,93,0.00,BKN,,0.04,39.0,WeatherDisplay:10.37,2013-02-09 11:37:00,
2013-02-09 11:42:00,39.0,37.1,30.04,ESE,115,4.6,4.6,93,0.00,BKN,,0.04,33.0,WeatherDisplay:10.37,2013-02-09 11:42:00,
2013-02-09 11:47:00,39.0,37.1,30.04,ESE,115,2.3,2.3,93,0.00,BKN,,0.04,30.0,WeatherDisplay:10.37,2013-02-09 11:47:00,
2013-02-09 11:52:00,39.0,37.1,30.04,ESE,115,2.3,2.3,93,0.00,BKN,,0.04,30.0,WeatherDisplay:10.37,2013-02-09 11:52:00,
2013-02-09 11:57:00,39.0,37.1,30.04,ESE,115,3.5,3.5,93,0.00,OVC,,0.04,26.0,WeatherDisplay:10.37,2013-02-09 11:57:00,
2013-02-09 12:02:00,39.0,37.1,30.04,ESE,114,3.5,0.0,93,0.00,OVC,,0.04,26.0,WeatherDisplay:10.37,2013-02-09 12:02:00,
2013-02-09 12:07:00,39.0,37.1,30.04,ESE,113,2.3,0.0,93,0.00,OVC,,0.04,26.0,WeatherDisplay:10.37,2013-02-09 12:07:00,
2013-02-09 12:12:00,39.0,37.1,30.03,ESE,113,3.5,3.5,93,0.00,OVC,,0.04,33.0,WeatherDisplay:10.37,2013-02-09 12:12:00,
2013-02-09 12:17:00,39.0,37.1,30.03,ESE,113,3.5,3.5,93,0.00,OVC,,0.04,32.0,WeatherDisplay:10.37,2013-02-09 12:17:00,
2013-02-09 12:22:00,39.0,37.1,30.03,ESE,113,0.0,0.0,93,0.00,BKN,,0.04,35.0,WeatherDisplay:10.37,2013-02-09 12:22:00,
2013-02-09 12:27:00,39.0,37.1,30.03,ESE,113,3.5,3.5,93,0.00,BKN,,0.04,37.0,WeatherDisplay:10.37,2013-02-09 12:27:00,
2013-02-09 12:32:00,39.0,37.1,30.03,ESE,114,4.6,4.6,93,0.00,BKN,,0.04,33.0,WeatherDisplay:10.37,2013-02-09 12:32:00,
2013-02-09 12:37:00,39.0,37.1,30.03,ESE,115,6.9,6.9,93,0.00,BKN,,0.04,35.0,WeatherDisplay:10.37,2013-02-09 12:37:00,
2013-02-09 12:42:00,39.0,37.1,30.03,ESE,115,4.0,4.0,93,0.00,BKN,,0.04,32.0,WeatherDisplay:10.37,2013-02-09 12:42:00,
2013-02-09 12:47:00,38.9,37.0,30.02,ESE,114,3.5,3.5,93,0.00,BKN,,0.04,33.0,WeatherDisplay:10.37,2013-02-09 12:47:00,
2013-02-09 12:52:00,38.9,37.0,30.02,ESE,115,3.5,3.5,93,0.00,BKN,,0.04,35.0,WeatherDisplay:10.37,2013-02-09 12:52:00,
2013-02-09 12:57:00,39.0,37.1,30.02,ESE,115,3.5,3.5,93,0.00,BKN,,0.04,39.0,WeatherDisplay:10.37,2013-02-09 12:57:00,
2013-02-09 13:02:00,39.0,37.1,30.02,ESE,115,2.0,2.1,93,0.00,BKN,,0.04,39.0,WeatherDisplay:10.37,2013-02-09 13:02:00,
2013-02-09 13:07:00,39.0,36.9,30.02,ESE,114,3.5,3.5,92,0.00,BKN,,0.04,37.0,WeatherDisplay:10.37,2013-02-09 13:07:00,
2013-02-09 13:12:00,39.0,36.9,30.02,ESE,111,4.6,4.6,92,0.00,BKN,,0.04,35.0,WeatherDisplay:10.37,2013-02-09 13:12:00,
2013-02-09 13:17:00,39.0,36.9,30.02,East,96,5.8,5.8,92,0.00,BKN,,0.04,35.0,WeatherDisplay:10.37,2013-02-09 13:17:00,
2013-02-09 13:22:00,39.0,36.9,30.02,ESE,103,4.6,4.6,92,0.00,BKN,,0.04,39.0,WeatherDisplay:10.37,2013-02-09 13:22:00,
2013-02-09 13:27:00,39.0,36.9,30.02,ESE,105,6.0,6.0,92,0.00,BKN,,0.04,42.0,WeatherDisplay:10.37,2013-02-09 13:27:00,
2013-02-09 13:32:00,39.0,36.9,30.02,ESE,107,5.8,5.8,92,0.00,BKN,,0.04,40.0,WeatherDisplay:10.37,2013-02-09 13:32:00,
2013-02-09 13:37:00,39.0,36.9,30.01,ESE,105,2.3,2.3,92,0.00,BKN,,0.04,39.0,WeatherDisplay:10.37,2013-02-09 13:37:00,
2013-02-09 13:42:00,39.0,36.9,30.01,ESE,105,2.3,2.3,92,0.00,BKN,,0.04,46.0,WeatherDisplay:10.37,2013-02-09 13:42:00,
2013-02-09 13:47:00,39.0,36.9,30.00,ESE,105,2.3,2.3,92,0.00,BKN,,0.04,51.0,WeatherDisplay:10.37,2013-02-09 13:47:00,
2013-02-09 13:52:00,39.1,37.0,30.00,ESE,105,1.1,1.1,92,0.00,BKN,,0.04,49.0,WeatherDisplay:10.37,2013-02-09 13:52:00,
2013-02-09 13:57:00,39.1,37.0,30.00,ESE,105,3.5,3.5,92,0.00,BKN,,0.04,54.0,WeatherDisplay:10.37,2013-02-09 13:57:00,
2013-02-09 14:02:00,39.2,37.3,30.00,ESE,103,3.5,3.5,93,0.00,BKN,,0.04,46.0,WeatherDisplay:10.37,2013-02-09 14:02:00,
2013-02-09 14:07:00,39.2,37.3,30.00,ESE,111,0.0,0.0,93,0.00,BKN,,0.04,42.0,WeatherDisplay:10.37,2013-02-09 14:07:00,
2013-02-09 14:12:00,39.2,37.3,30.00,ESE,110,4.6,4.6,93,0.00,BKN,,0.04,44.0,WeatherDisplay:10.37,2013-02-09 14:12:00,
2013-02-09 14:17:00,39.2,37.3,30.00,ESE,110,3.5,3.5,93,0.00,BKN,,0.04,49.0,WeatherDisplay:10.37,2013-02-09 14:17:00,
2013-02-09 14:22:00,39.2,37.3,30.00,ESE,107,3.5,3.5,93,0.00,BKN,,0.04,51.0,WeatherDisplay:10.37,2013-02-09 14:22:00,
2013-02-09 14:27:00,39.3,37.2,30.00,ESE,103,4.6,4.6,92,0.00,BKN,,0.04,47.0,WeatherDisplay:10.37,2013-02-09 14:27:00,
2013-02-09 14:32:00,39.2,37.1,29.99,ESE,106,4.6,4.6,92,0.00,BKN,,0.04,46.0,WeatherDisplay:10.37,2013-02-09 14:32:00,
2013-02-09 14:37:00,39.3,37.2,29.99,East,101,5.8,5.8,92,0.00,BKN,,0.04,49.0,WeatherDisplay:10.37,2013-02-09 14:37:00,
2013-02-09 14:42:00,39.2,37.1,29.99,ESE,105,4.6,4.6,92,0.00,BKN,,0.04,51.0,WeatherDisplay:10.37,2013-02-09 14:42:00,
2013-02-09 14:47:00,39.2,37.1,29.99,ESE,107,5.8,5.8,92,0.00,BKN,,0.04,46.0,WeatherDisplay:10.37,2013-02-09 14:47:00,
2013-02-09 14:52:00,39.2,37.1,29.99,ESE,112,3.5,3.5,92,0.00,BKN,,0.04,42.0,WeatherDisplay:10.37,2013-02-09 14:52:00,
2013-02-09 14:57:00,39.2,37.1,29.99,ESE,110,2.3,2.3,92,0.00,BKN,,0.04,35.0,WeatherDisplay:10.37,2013-02-09 14:57:00,
2013-02-09 15:02:00,39.2,37.1,29.98,ESE,109,4.6,4.6,92,0.00,BKN,,0.04,32.0,WeatherDisplay:10.37,2013-02-09 15:02:00,
2013-02-09 15:07:00,39.2,37.1,29.98,ESE,109,5.8,5.8,92,0.00,BKN,,0.04,32.0,WeatherDisplay:10.37,2013-02-09 15:07:00,
2013-02-09 15:12:00,39.2,37.1,29.98,ESE,110,4.6,4.6,92,0.00,BKN,,0.04,26.0,WeatherDisplay:10.37,2013-02-09 15:12:00,
2013-02-09 15:17:00,39.2,37.1,29.98,ESE,109,4.6,4.6,92,0.00,BKN,,0.04,23.0,WeatherDisplay:10.37,2013-02-09 15:17:00,
2013-02-09 15:22:00,39.2,37.1,29.97,ESE,110,5.8,5.8,92,0.00,BKN,,0.04,23.0,WeatherDisplay:10.37,2013-02-09 15:22:00,
2013-02-09 15:27:00,39.2,37.1,29.97,ESE,110,5.8,5.8,92,0.00,BKN,,0.04,25.0,WeatherDisplay:10.37,2013-02-09 15:27:00,
2013-02-09 15:32:00,39.2,37.1,29.97,ESE,111,4.6,4.6,92,0.00,BKN,,0.04,21.0,WeatherDisplay:10.37,2013-02-09 15:32:00,
2013-02-09 15:37:00,39.1,37.0,29.97,ESE,107,3.5,3.5,92,0.00,BKN,,0.04,19.0,WeatherDisplay:10.37,2013-02-09 15:37:00,
2013-02-09 15:42:00,39.1,36.7,29.97,ESE,108,6.9,6.9,91,0.00,BKN,,0.04,19.0,WeatherDisplay:10.37,2013-02-09 15:42:00,
2013-02-09 15:47:00,39.0,36.6,29.97,ESE,105,6.9,6.9,91,0.00,BKN,,0.04,16.0,WeatherDisplay:10.37,2013-02-09 15:47:00,
2013-02-09 15:52:00,39.0,36.6,29.97,ESE,106,3.5,3.5,91,0.00,BKN,,0.04,16.0,WeatherDisplay:10.37,2013-02-09 15:52:00,
2013-02-09 15:57:00,39.0,36.6,29.96,ESE,105,8.0,8.0,91,0.00,BKN,,0.04,16.0,WeatherDisplay:10.37,2013-02-09 15:57:00,
2013-02-09 16:02:00,39.0,36.6,29.96,ESE,106,5.8,5.8,91,0.00,BKN,,0.04,12.0,WeatherDisplay:10.37,2013-02-09 16:02:00,
2013-02-09 16:07:00,39.0,36.6,29.96,ESE,105,4.6,4.6,91,0.00,BKN,,0.04,11.0,WeatherDisplay:10.37,2013-02-09 16:07:00,
2013-02-09 16:12:00,39.0,36.6,29.96,ESE,105,4.0,4.0,91,0.00,BKN,,0.04,9.0,WeatherDisplay:10.37,2013-02-09 16:12:00,
2013-02-09 16:18:00,39.0,36.6,29.96,ESE,109,9.0,9.0,91,0.00,OVC,,0.04,7.0,WeatherDisplay:10.37,2013-02-09 16:18:00,
2013-02-09 16:22:00,39.0,36.6,29.96,ESE,105,4.6,4.6,91,0.00,OVC,,0.04,7.0,WeatherDisplay:10.37,2013-02-09 16:22:00,
2013-02-09 16:28:00,39.0,36.6,29.96,ESE,108,6.0,6.0,91,0.00,OVC,,0.04,5.0,WeatherDisplay:10.37,2013-02-09 16:28:00,
2013-02-09 16:33:00,38.9,36.5,29.96,ESE,107,10.4,10.4,91,0.00,OVC,,0.04,5.0,WeatherDisplay:10.37,2013-02-09 16:33:00,
2013-02-09 16:38:00,38.9,36.5,29.95,ESE,106,6.9,6.9,91,0.00,OVC,,0.04,0.0,WeatherDisplay:10.37,2013-02-09 16:38:00,
2013-02-09 16:43:00,38.9,36.5,29.95,ESE,106,5.8,5.8,91,0.00,OVC,,0.04,0.0,WeatherDisplay:10.37,2013-02-09 16:43:00,
2013-02-09 16:48:00,38.8,36.1,29.95,ESE,103,4.0,4.0,90,0.00,OVC,,0.04,0.0,WeatherDisplay:10.37,2013-02-09 16:48:00,
2013-02-09 16:53:00,38.8,36.1,29.96,ESE,103,4.0,4.0,90,0.00,OVC,,0.04,0.0,WeatherDisplay:10.37,2013-02-09 16:53:00,
2013-02-09 16:58:00,38.7,36.0,29.96,ESE,104,7.0,7.0,90,0.00,OVC,,0.04,0.0,WeatherDisplay:10.37,2013-02-09 16:58:00,
2013-02-09 17:03:00,38.7,36.0,29.95,ESE,104,4.6,4.6,90,0.00,OVC,,0.04,0.0,WeatherDisplay:10.37,2013-02-09 17:03:00,
2013-02-09 17:08:00,38.7,36.0,29.95,ESE,103,3.5,3.5,90,0.00,OVC,,0.04,0.0,WeatherDisplay:10.37,2013-02-09 17:08:00,
2013-02-09 17:13:00,38.7,36.0,29.95,ESE,103,4.0,4.0,90,0.00,OVC,,0.04,0.0,WeatherDisplay:10.37,2013-02-09 17:13:00,
2013-02-09 17:18:00,38.6,35.9,29.95,ESE,104,3.5,3.5,90,0.00,OVC,,0.04,0.0,WeatherDisplay:10.37,2013-02-09 17:18:00,
2013-02-09 17:23:00,38.6,35.9,29.95,ESE,103,3.5,3.5,90,0.00,OVC,,0.04,0.0,WeatherDisplay:10.37,2013-02-09 17:23:00,
2013-02-09 17:28:00,38.6,35.9,29.95,ESE,105,6.0,6.0,90,0.00,OVC,,0.04,0.0,WeatherDisplay:10.37,2013-02-09 17:28:00,
2013-02-09 17:33:00,38.6,35.9,29.94,ESE,105,3.5,3.5,90,0.00,OVC,,0.04,0.0,WeatherDisplay:10.37,2013-02-09 17:33:00,
2013-02-09 17:38:00,38.6,35.9,29.94,ESE,105,4.0,4.0,90,0.00,CLR,,0.04,0.0,WeatherDisplay:10.37,2013-02-09 17:38:00,
2013-02-09 17:43:00,38.5,35.8,29.94,ESE,106,5.0,5.0,90,0.00,CLR,,0.04,0.0,WeatherDisplay:10.37,2013-02-09 17:43:00,
2013-02-09 17:48:00,38.5,35.8,29.94,ESE,105,2.3,0.0,90,0.00,CLR,,0.04,0.0,WeatherDisplay:10.37,2013-02-09 17:48:00,
2013-02-09 17:53:00,38.5,35.8,29.94,ESE,106,0.0,0.0,90,0.00,CLR,,0.04,0.0,WeatherDisplay:10.37,2013-02-09 17:53:00,
2013-02-09 17:58:00,38.4,35.7,29.94,ESE,105,1.1,0.0,90,0.00,CLR,,0.04,0.0,WeatherDisplay:10.37,2013-02-09 17:58:00,
2013-02-09 18:03:00,38.4,35.7,29.94,ESE,106,3.0,0.0,90,0.00,CLR,,0.04,0.0,WeatherDisplay:10.37,2013-02-09 18:03:00,
2013-02-09 18:08:00,38.4,35.7,29.93,ESE,105,4.0,4.0,90,0.00,CLR,,0.04,0.0,WeatherDisplay:10.37,2013-02-09 18:08:00,
2013-02-09 18:13:00,38.4,35.7,29.93,ESE,105,3.5,3.5,90,0.00,CLR,,0.04,0.0,WeatherDisplay:10.37,2013-02-09 18:13:00,
2013-02-09 18:18:00,38.4,35.7,29.93,ESE,106,3.5,3.5,90,0.00,CLR,,0.04,0.0,WeatherDisplay:10.37,2013-02-09 18:18:00,
2013-02-09 18:23:00,38.4,36.0,29.93,ESE,106,3.5,3.5,91,0.00,CLR,,0.04,0.0,WeatherDisplay:10.37,2013-02-09 18:23:00,
2013-02-09 18:28:00,38.4,36.0,29.93,ESE,107,4.0,4.0,91,0.00,CLR,,0.04,0.0,WeatherDisplay:10.37,2013-02-09 18:28:00,
2013-02-09 18:33:00,38.4,36.0,29.93,ESE,105,4.6,4.6,91,0.00,CLR,,0.04,0.0,WeatherDisplay:10.37,2013-02-09 18:33:00,
2013-02-09 18:38:00,38.4,36.0,29.93,ESE,106,6.0,6.0,91,0.00,CLR,,0.04,0.0,WeatherDisplay:10.37,2013-02-09 18:38:00,
2013-02-09 18:43:00,38.4,36.0,29.92,ESE,105,9.2,9.2,91,0.00,CLR,,0.04,0.0,WeatherDisplay:10.37,2013-02-09 18:43:00,
2013-02-09 18:48:00,38.4,36.0,29.92,East,101,4.6,4.6,91,0.00,CLR,,0.04,0.0,WeatherDisplay:10.37,2013-02-09 18:48:00,
2013-02-09 18:53:00,38.4,36.0,29.92,ESE,105,6.0,6.0,91,0.00,CLR,,0.04,0.0,WeatherDisplay:10.37,2013-02-09 18:53:00,
2013-02-09 18:58:00,38.3,35.9,29.92,ESE,103,4.6,4.6,91,0.00,CLR,,0.04,0.0,WeatherDisplay:10.37,2013-02-09 18:58:00,
2013-02-09 19:03:00,38.3,35.9,29.92,ESE,103,3.5,3.5,91,0.01,RA,,0.05,0.0,WeatherDisplay:10.37,2013-02-09 19:03:00,
2013-02-09 19:08:00,38.3,35.9,29.91,ESE,103,2.3,2.3,91,0.01,RA,,0.05,0.0,WeatherDisplay:10.37,2013-02-09 19:08:00,
2013-02-09 19:13:00,38.3,35.9,29.91,ESE,104,5.8,5.8,91,0.01,,,0.05,0.0,WeatherDisplay:10.37,2013-02-09 19:13:00,
2013-02-09 19:18:00,38.3,35.9,29.91,ESE,103,4.0,4.0,91,0.01,CLR,,0.05,0.0,WeatherDisplay:10.37,2013-02-09 19:18:00,
2013-02-09 19:23:00,38.3,35.9,29.91,East,101,3.5,3.5,91,0.01,CLR,,0.05,0.0,WeatherDisplay:10.37,2013-02-09 19:23:00,
2013-02-09 19:28:00,38.3,35.9,29.91,ESE,102,4.6,4.6,91,0.01,CLR,,0.05,0.0,WeatherDisplay:10.37,2013-02-09 19:28:00,
2013-02-09 19:33:00,38.2,35.8,29.90,ESE,103,4.6,4.6,91,0.01,CLR,,0.05,0.0,WeatherDisplay:10.37,2013-02-09 19:33:00,
2013-02-09 19:38:00,38.2,35.8,29.90,ESE,103,3.5,3.5,91,0.01,CLR,,0.05,0.0,WeatherDisplay:10.37,2013-02-09 19:38:00,
2013-02-09 19:43:00,38.1,35.7,29.90,ESE,103,2.3,2.3,91,0.01,CLR,,0.05,0.0,WeatherDisplay:10.37,2013-02-09 19:43:00,
2013-02-09 19:48:00,38.0,35.6,29.90,ESE,103,3.5,3.5,91,0.01,CLR,,0.05,0.0,WeatherDisplay:10.37,2013-02-09 19:48:00,
2013-02-09 19:53:00,38.0,35.6,29.90,ESE,103,0.0,0.0,91,0.01,CLR,,0.05,0.0,WeatherDisplay:10.37,2013-02-09 19:53:00,
2013-02-09 19:58:00,37.9,35.5,29.89,ESE,103,0.0,0.0,91,0.02,RA,,0.06,0.0,WeatherDisplay:10.37,2013-02-09 19:58:00,
2013-02-09 20:03:00,37.9,35.5,29.89,ESE,103,3.5,3.5,91,0.01,RA,,0.06,0.0,WeatherDisplay:10.37,2013-02-09 20:03:00,
2013-02-09 20:08:00,37.8,35.4,29.89,ESE,103,3.5,3.5,91,0.01,CLR,,0.06,0.0,WeatherDisplay:10.37,2013-02-09 20:08:00,
2013-02-09 20:13:00,37.8,35.4,29.89,ESE,103,3.5,3.5,91,0.01,CLR,,0.06,0.0,WeatherDisplay:10.37,2013-02-09 20:13:00,
2013-02-09 20:18:00,37.8,35.4,29.89,ESE,103,3.5,3.5,91,0.01,CLR,,0.06,0.0,WeatherDisplay:10.37,2013-02-09 20:18:00,
2013-02-09 20:23:00,37.8,35.4,29.89,ESE,103,3.5,3.5,91,0.01,CLR,,0.06,0.0,WeatherDisplay:10.37,2013-02-09 20:23:00,
2013-02-09 20:28:00,37.8,35.4,29.89,ESE,103,3.5,3.5,91,0.01,CLR,,0.06,0.0,WeatherDisplay:10.37,2013-02-09 20:28:00,
2013-02-09 20:33:00,37.7,35.3,29.89,ESE,103,1.1,1.1,91,0.01,CLR,,0.06,0.0,WeatherDisplay:10.37,2013-02-09 20:33:00,
2013-02-09 20:38:00,37.7,35.3,29.89,ESE,103,3.5,3.5,91,0.01,CLR,,0.06,0.0,WeatherDisplay:10.37,2013-02-09 20:38:00,
2013-02-09 20:43:00,37.7,35.3,29.88,ESE,103,3.5,3.5,91,0.01,CLR,,0.06,0.0,WeatherDisplay:10.37,2013-02-09 20:43:00,
2013-02-09 20:48:00,37.7,35.3,29.88,ESE,104,3.5,3.5,91,0.01,CLR,,0.06,0.0,WeatherDisplay:10.37,2013-02-09 20:48:00,
2013-02-09 20:53:00,37.6,35.2,29.88,ESE,103,3.5,3.5,91,0.01,CLR,,0.06,0.0,WeatherDisplay:10.37,2013-02-09 20:53:00,
2013-02-09 20:58:00,37.6,35.2,29.88,ESE,104,2.3,2.3,91,0.00,CLR,,0.06,0.0,WeatherDisplay:10.37,2013-02-09 20:58:00,
2013-02-09 21:03:00,37.6,35.2,29.87,ESE,105,3.5,3.5,91,0.00,CLR,,0.06,0.0,WeatherDisplay:10.37,2013-02-09 21:03:00,
2013-02-09 21:08:00,37.6,35.2,29.87,ESE,105,4.0,4.0,91,0.00,CLR,,0.06,0.0,WeatherDisplay:10.37,2013-02-09 21:08:00,
2013-02-09 21:13:00,37.6,35.2,29.87,ESE,105,3.5,3.5,91,0.00,CLR,,0.06,0.0,WeatherDisplay:10.37,2013-02-09 21:13:00,
2013-02-09 21:18:00,37.6,35.2,29.86,East,101,7.0,7.0,91,0.00,CLR,,0.06,0.0,WeatherDisplay:10.37,2013-02-09 21:18:00,
2013-02-09 21:23:00,37.5,35.1,29.86,ESE,104,8.1,8.1,91,0.00,CLR,,0.06,0.0,WeatherDisplay:10.37,2013-02-09 21:23:00,
2013-02-09 21:28:00,37.5,35.1,29.86,ESE,105,5.8,5.8,91,0.00,CLR,,0.06,0.0,WeatherDisplay:10.37,2013-02-09 21:28:00,
2013-02-09 21:34:00,37.4,35.0,29.86,ESE,105,4.6,4.6,91,0.00,CLR,,0.06,0.0,WeatherDisplay:10.37,2013-02-09 21:34:00,
2013-02-09 21:39:00,37.4,35.0,29.85,ESE,105,4.6,4.6,91,0.00,CLR,,0.06,0.0,WeatherDisplay:10.37,2013-02-09 21:39:00,
2013-02-09 21:44:00,37.4,35.0,29.85,ESE,104,5.8,5.8,91,0.00,CLR,,0.06,0.0,WeatherDisplay:10.37,2013-02-09 21:44:00,
2013-02-09 21:49:00,37.3,34.9,29.85,ESE,109,5.8,5.8,91,0.00,CLR,,0.06,0.0,WeatherDisplay:10.37,2013-02-09 21:49:00,
2013-02-09 21:54:00,37.3,34.9,29.84,ESE,105,10.4,10.4,91,0.00,CLR,,0.06,0.0,WeatherDisplay:10.37,2013-02-09 21:54:00,
2013-02-09 21:59:00,37.2,34.5,29.84,ESE,107,11.5,11.5,90,0.00,CLR,,0.06,0.0,WeatherDisplay:10.37,2013-02-09 21:59:00,
2013-02-09 22:04:00,37.2,34.5,29.84,ESE,105,4.6,4.9,90,0.00,CLR,,0.06,0.0,WeatherDisplay:10.37,2013-02-09 22:04:00,
2013-02-09 22:09:00,37.1,34.4,29.84,ESE,106,6.9,6.9,90,0.00,CLR,,0.06,0.0,WeatherDisplay:10.37,2013-02-09 22:09:00,
2013-02-09 22:14:00,37.1,34.2,29.83,ESE,105,6.9,6.9,89,0.00,CLR,,0.06,0.0,WeatherDisplay:10.37,2013-02-09 22:14:00,
2013-02-09 22:19:00,37.1,34.2,29.83,ESE,107,10.4,10.4,89,0.00,CLR,,0.06,0.0,WeatherDisplay:10.37,2013-02-09 22:19:00,
2013-02-09 22:24:00,37.0,34.1,29.82,ESE,110,5.8,5.8,89,0.00,CLR,,0.06,0.0,WeatherDisplay:10.37,2013-02-09 22:24:00,
2013-02-09 22:29:00,37.0,34.1,29.83,East,92,10.4,10.4,89,0.00,CLR,,0.06,0.0,WeatherDisplay:10.37,2013-02-09 22:29:00,
2013-02-09 22:34:00,37.0,34.1,29.82,ESE,105,6.9,6.9,89,0.00,CLR,,0.06,0.0,WeatherDisplay:10.37,2013-02-09 22:34:00,
2013-02-09 22:39:00,37.0,33.8,29.82,ESE,109,4.6,4.6,88,0.00,CLR,,0.06,0.0,WeatherDisplay:10.37,2013-02-09 22:39:00,
2013-02-09 22:44:00,37.0,34.1,29.82,East,101,6.0,6.0,89,0.00,CLR,,0.06,0.0,WeatherDisplay:10.37,2013-02-09 22:44:00,
2013-02-09 22:49:00,36.9,33.7,29.82,ESE,114,3.5,3.5,88,0.00,CLR,,0.06,0.0,WeatherDisplay:10.37,2013-02-09 22:49:00,
2013-02-09 22:54:00,36.9,33.7,29.82,ESE,104,8.1,8.1,88,0.00,CLR,,0.06,0.0,WeatherDisplay:10.37,2013-02-09 22:54:00,
2013-02-09 22:59:00,36.9,33.7,29.81,ESE,120,6.0,6.0,88,0.00,CLR,,0.06,0.0,WeatherDisplay:10.37,2013-02-09 22:59:00,
2013-02-09 23:04:00,36.9,33.7,29.81,ESE,107,6.0,6.0,88,0.00,CLR,,0.06,0.0,WeatherDisplay:10.37,2013-02-09 23:04:00,
2013-02-09 23:09:00,36.8,33.6,29.81,ESE,106,10.4,10.4,88,0.00,CLR,,0.06,0.0,WeatherDisplay:10.37,2013-02-09 23:09:00,
2013-02-09 23:14:00,36.8,33.6,29.81,ESE,107,5.8,5.8,88,0.00,CLR,,0.06,0.0,WeatherDisplay:10.37,2013-02-09 23:14:00,
2013-02-09 23:19:00,36.8,33.6,29.80,East,96,5.8,5.8,88,0.00,CLR,,0.06,0.0,WeatherDisplay:10.37,2013-02-09 23:19:00,
2013-02-09 23:24:00,36.7,33.5,29.80,ESE,110,6.0,6.0,88,0.00,CLR,,0.06,0.0,WeatherDisplay:10.37,2013-02-09 23:24:00,
2013-02-09 23:29:00,36.7,33.8,29.80,ESE,110,5.8,5.8,89,0.00,CLR,,0.06,0.0,WeatherDisplay:10.37,2013-02-09 23:29:00,
2013-02-09 23:34:00,36.6,33.4,29.80,ESE,106,5.8,5.8,88,0.00,CLR,,0.06,0.0,WeatherDisplay:10.37,2013-02-09 23:34:00,
2013-02-09 23:39:00,36.6,33.7,29.79,ESE,105,3.5,3.5,89,0.00,CLR,,0.06,0.0,WeatherDisplay:10.37,2013-02-09 23:39:00,
2013-02-09 23:44:00,36.6,33.7,29.79,East,96,6.9,6.9,89,0.00,CLR,,0.06,0.0,WeatherDisplay:10.37,2013-02-09 23:44:00,
2013-02-09 23:49:00,36.6,33.7,29.79,East,98,5.8,5.8,89,0.00,CLR,,0.06,0.0,WeatherDisplay:10.37,2013-02-09 23:49:00,
2013-02-09 23:54:00,36.6,33.7,29.79,East,98,4.6,4.6,89,0.00,CLR,,0.06,0.0,WeatherDisplay:10.37,2013-02-09 23:54:00,
2013-02-09 23:59:00,36.5,33.6,29.79,East,98,3.5,3.5,89,0.00,CLR,,0.06,0.0,WeatherDisplay:10.37,2013-02-09 23:59:00,